Little Falls, New Jersey
Current Conditions -  °F | °C
As of 1:53 PM on Sunday 23 Nov 2014 (Local Time) from KCDW Reporting Station
Clear Clear  
Wind Chill: 58°   Ceiling: Unl
Heat Index: 58°   Visibility: 10mi
Dew Point: 24°   Wind: 7mph
Humidity: 27%   Direction: 210°SSW
Pressure: 30.13"   Gusts: NA
Location:  40.88°N, 74.23°W
Report Text: KCDW 231853Z 21006KT 10SM CLR 14/M04 A3013 RMK AO2 SLP207 T01441044
Loading
Personal Weather Stations






























Interactive Weather Map New forecast layout! Learn more

10-Day Weather Forecast

Advertisements
Track Severe Weather on mobile